Time;durP1;ratioP1;P1;durP2;ratioP2;P2;SDS_P1;SDS_P2;PMS_P1;PMS_P2;Temp;Humidity;BMP_temperature;BMP_pressure;BME280_temperature;BME280_humidity;BME280_pressure;Samples;Min_cycle;Max_cycle;Signal;HPM_P1;HPM_P2
2022/09/16 00:00:45;;;;;;;1.83;0.70;;;;;;;;;;5047089;28;20180;-65
2022/09/16 00:03:11;;;;;;;5.25;0.82;;;;;;;;;;5041665;28;20264;-66
2022/09/16 00:05:45;;;;;;;6.15;0.77;;;;;;;;;;5043919;28;20825;-66
2022/09/16 00:08:11;;;;;;;3.80;0.90;;;;;;;;;;5042378;28;20178;-68
2022/09/16 00:10:36;;;;;;;4.65;0.82;;;;;;;;;;5038607;28;20238;-70
2022/09/16 00:13:01;;;;;;;6.68;0.98;;;;;;;;;;5046673;28;20185;-67
2022/09/16 00:15:27;;;;;;;5.03;0.88;;;;;;;;;;5045996;28;20184;-68
2022/09/16 00:17:53;;;;;;;9.23;0.90;;;;;;;;;;5036096;28;20198;-68
2022/09/16 00:20:18;;;;;;;5.25;0.90;;;;;;;;;;5044418;28;20181;-68
2022/09/16 00:22:43;;;;;;;4.72;0.90;;;;;;;;;;5036645;28;20181;-68
2022/09/16 00:25:08;;;;;;;3.90;0.77;;;;;;;;;;5043526;28;20344;-68
2022/09/16 00:27:34;;;;;;;2.50;0.40;;;;;;;;;;5038850;28;20249;-68
2022/09/16 00:29:59;;;;;;;5.78;0.80;;;;;;;;;;5034239;28;20185;-67
2022/09/16 00:32:25;;;;;;;2.47;0.60;;;;;;;;;;5052265;28;20213;-68
2022/09/16 00:34:51;;;;;;;3.55;0.60;;;;;;;;;;5045404;28;20173;-68
2022/09/16 00:37:16;;;;;;;3.58;0.65;;;;;;;;;;5044087;28;20229;-68
2022/09/16 00:39:42;;;;;;;3.67;0.47;;;;;;;;;;5041092;28;20211;-68
2022/09/16 00:42:10;;;;;;;4.43;0.60;;;;;;;;;;5042762;28;20173;-67
2022/09/16 00:45:01;;;;;;;1.52;0.47;;;;;;;;;;5044212;28;20235;-67
2022/09/16 00:48:04;;;;;;;4.45;0.52;;;;;;;;;;5050076;28;20623;-68
2022/09/16 00:50:43;;;;;;;5.50;0.60;;;;;;;;;;5031336;28;20199;-68
2022/09/16 00:53:14;;;;;;;2.78;0.55;;;;;;;;;;5041257;28;20189;-68
2022/09/16 00:55:41;;;;;;;3.78;0.88;;;;;;;;;;5046467;28;20169;-68
2022/09/16 00:58:17;;;;;;;3.35;1.00;;;;;;;;;;5045093;28;20223;-68
2022/09/16 01:00:43;;;;;;;2.22;0.50;;;;;;;;;;5041049;28;20269;-68
2022/09/16 01:03:08;;;;;;;6.13;0.60;;;;;;;;;;5036753;28;20312;-68
2022/09/16 01:05:35;;;;;;;4.43;0.70;;;;;;;;;;5031540;28;20184;-68
2022/09/16 01:08:01;;;;;;;2.03;0.68;;;;;;;;;;5038842;28;20744;-67
2022/09/16 01:10:27;;;;;;;3.60;0.70;;;;;;;;;;5034520;28;20186;-68
2022/09/16 01:13:03;;;;;;;5.78;0.80;;;;;;;;;;5044142;28;20177;-68
2022/09/16 01:15:57;;;;;;;3.10;0.70;;;;;;;;;;5030231;28;20193;-67
2022/09/16 01:18:42;;;;;;;3.05;0.82;;;;;;;;;;5042981;28;20216;-67
2022/09/16 01:21:38;;;;;;;4.85;0.60;;;;;;;;;;5045993;28;20255;-67
2022/09/16 01:24:27;;;;;;;5.75;0.80;;;;;;;;;;5043363;28;20190;-67
2022/09/16 01:27:17;;;;;;;5.47;1.05;;;;;;;;;;5032127;28;20257;-67
2022/09/16 01:30:00;;;;;;;4.00;1.23;;;;;;;;;;5039625;28;20190;-67
2022/09/16 01:32:41;;;;;;;4.90;1.40;;;;;;;;;;5037231;28;20252;-68
2022/09/16 01:35:15;;;;;;;7.72;1.55;;;;;;;;;;5038399;28;20559;-68
2022/09/16 01:38:21;;;;;;;2.95;1.15;;;;;;;;;;5035476;28;20197;-67
2022/09/16 01:40:56;;;;;;;3.45;1.25;;;;;;;;;;5040184;28;20178;-67
2022/09/16 01:43:49;;;;;;;5.75;1.20;;;;;;;;;;5038088;28;20188;-67
2022/09/16 01:46:21;;;;;;;4.35;1.40;;;;;;;;;;5043410;28;20177;-67
2022/09/16 01:48:57;;;;;;;5.22;1.48;;;;;;;;;;5053963;28;20272;-67
2022/09/16 01:51:33;;;;;;;7.32;1.50;;;;;;;;;;5049649;28;20208;-67
2022/09/16 01:54:07;;;;;;;9.68;1.63;;;;;;;;;;5044433;28;20185;-67
2022/09/16 01:56:48;;;;;;;6.70;1.70;;;;;;;;;;5045404;28;20188;-67
2022/09/16 01:59:24;;;;;;;5.90;1.88;;;;;;;;;;5038704;28;20264;-67
2022/09/16 02:01:58;;;;;;;4.00;1.38;;;;;;;;;;5049083;28;20192;-66
2022/09/16 02:04:30;;;;;;;6.20;1.30;;;;;;;;;;5044484;28;20181;-67
2022/09/16 02:06:57;;;;;;;9.55;2.42;;;;;;;;;;5042855;28;20189;-67
2022/09/16 02:09:28;;;;;;;3.92;1.42;;;;;;;;;;5036739;28;20225;-67
2022/09/16 02:11:57;;;;;;;7.57;1.60;;;;;;;;;;5049415;28;20511;-67
2022/09/16 02:14:29;;;;;;;5.35;1.70;;;;;;;;;;5034869;28;20189;-67
2022/09/16 02:17:00;;;;;;;5.82;1.65;;;;;;;;;;5048887;28;20228;-67
2022/09/16 02:19:32;;;;;;;4.35;1.95;;;;;;;;;;5045315;28;20536;-67
2022/09/16 02:22:02;;;;;;;6.93;1.55;;;;;;;;;;5036365;28;20185;-67
2022/09/16 02:24:29;;;;;;;6.68;2.05;;;;;;;;;;5044422;28;20268;-67
2022/09/16 02:27:01;;;;;;;4.60;1.58;;;;;;;;;;5046227;28;20213;-67
2022/09/16 02:29:32;;;;;;;5.35;1.98;;;;;;;;;;5036421;28;20279;-67
2022/09/16 02:32:01;;;;;;;8.55;1.75;;;;;;;;;;5061085;28;20653;-67
2022/09/16 02:34:31;;;;;;;6.25;1.80;;;;;;;;;;5031728;28;20607;-67
2022/09/16 02:37:03;;;;;;;9.45;1.88;;;;;;;;;;5049002;28;20201;-67
2022/09/16 02:39:33;;;;;;;5.25;1.75;;;;;;;;;;5060458;28;20883;-67
2022/09/16 02:41:59;;;;;;;3.88;1.30;;;;;;;;;;5061352;28;20174;-67
2022/09/16 02:44:24;;;;;;;8.18;1.95;;;;;;;;;;5045989;28;20532;-67
2022/09/16 02:47:11;;;;;;;5.30;1.65;;;;;;;;;;5051081;28;20173;-68
2022/09/16 02:49:52;;;;;;;5.80;2.05;;;;;;;;;;5063733;28;20184;-69
2022/09/16 02:52:36;;;;;;;4.78;1.42;;;;;;;;;;5046648;28;20173;-70
2022/09/16 02:55:10;;;;;;;8.88;1.48;;;;;;;;;;5035804;28;20186;-68
2022/09/16 02:57:37;;;;;;;3.85;1.25;;;;;;;;;;5032621;28;20261;-69
2022/09/16 03:00:04;;;;;;;7.05;1.65;;;;;;;;;;5029044;28;20182;-69
2022/09/16 03:02:32;;;;;;;3.38;1.02;;;;;;;;;;5039141;28;20280;-68
2022/09/16 03:04:57;;;;;;;5.40;1.50;;;;;;;;;;5047564;28;20265;-69
2022/09/16 03:07:22;;;;;;;3.88;1.20;;;;;;;;;;5044220;28;20264;-68
2022/09/16 03:09:48;;;;;;;3.72;1.30;;;;;;;;;;5048973;28;20373;-67
2022/09/16 03:12:35;;;;;;;5.13;1.20;;;;;;;;;;5053830;28;20256;-68
2022/09/16 03:15:25;;;;;;;3.38;0.90;;;;;;;;;;5041237;28;20212;-68
2022/09/16 03:18:32;;;;;;;4.78;1.20;;;;;;;;;;5039887;28;20193;-68
2022/09/16 03:21:06;;;;;;;2.92;0.75;;;;;;;;;;5040266;28;20276;-68
2022/09/16 03:24:09;;;;;;;4.82;0.85;;;;;;;;;;5048807;28;20632;-67
2022/09/16 03:27:05;;;;;;;5.78;1.10;;;;;;;;;;5030676;28;20241;-68
2022/09/16 03:29:52;;;;;;;3.97;0.75;;;;;;;;;;5052436;28;20295;-68
2022/09/16 03:32:33;;;;;;;9.45;1.17;;;;;;;;;;5046573;28;20215;-67
2022/09/16 03:35:03;;;;;;;2.90;1.00;;;;;;;;;;5042544;28;20660;-67
2022/09/16 03:37:34;;;;;;;6.43;1.10;;;;;;;;;;5048313;28;20197;-67
2022/09/16 03:40:06;;;;;;;6.15;0.80;;;;;;;;;;5037174;28;20182;-68
2022/09/16 03:42:32;;;;;;;4.40;0.77;;;;;;;;;;5046787;28;20284;-67
2022/09/16 03:44:58;;;;;;;2.17;0.80;;;;;;;;;;5038536;28;20759;-69
2022/09/16 03:47:23;;;;;;;3.88;0.70;;;;;;;;;;5042105;28;20205;-68
2022/09/16 03:49:49;;;;;;;5.57;0.80;;;;;;;;;;5045773;28;20178;-69
2022/09/16 03:52:17;;;;;;;5.07;0.70;;;;;;;;;;5041071;28;20254;-68
2022/09/16 03:54:43;;;;;;;2.75;0.93;;;;;;;;;;5059690;28;20196;-69
2022/09/16 03:57:08;;;;;;;5.00;0.90;;;;;;;;;;5050000;28;20290;-71
2022/09/16 03:59:33;;;;;;;2.00;0.70;;;;;;;;;;5046032;28;20185;-70
2022/09/16 04:01:59;;;;;;;5.30;0.77;;;;;;;;;;5044874;28;20188;-71
2022/09/16 04:04:24;;;;;;;5.05;0.80;;;;;;;;;;5050344;28;20186;-69
2022/09/16 04:06:49;;;;;;;4.85;0.82;;;;;;;;;;5037567;28;20181;-68
2022/09/16 04:09:15;;;;;;;4.38;1.05;;;;;;;;;;5049093;28;20551;-69
2022/09/16 04:11:41;;;;;;;6.25;1.20;;;;;;;;;;5038699;28;20645;-69
2022/09/16 04:14:06;;;;;;;5.13;1.13;;;;;;;;;;5041113;28;20700;-69
2022/09/16 04:16:32;;;;;;;3.17;1.00;;;;;;;;;;5046797;28;20264;-69
2022/09/16 04:18:58;;;;;;;4.22;0.70;;;;;;;;;;5046521;28;20192;-69
2022/09/16 04:21:24;;;;;;;4.30;0.90;;;;;;;;;;5043471;28;20182;-69
2022/09/16 04:23:49;;;;;;;7.32;1.00;;;;;;;;;;5046354;28;20253;-69
2022/09/16 04:26:16;;;;;;;3.33;1.00;;;;;;;;;;5040524;28;20228;-69
2022/09/16 04:28:42;;;;;;;5.43;1.23;;;;;;;;;;5048112;28;20204;-69
2022/09/16 04:31:11;;;;;;;2.78;1.00;;;;;;;;;;5044227;28;20181;-69
2022/09/16 04:33:37;;;;;;;2.97;0.80;;;;;;;;;;5043552;28;20207;-69
2022/09/16 04:36:13;;;;;;;5.53;1.23;;;;;;;;;;5045524;28;20180;-69
2022/09/16 04:38:41;;;;;;;3.95;1.02;;;;;;;;;;5039303;28;20208;-69
2022/09/16 04:41:09;;;;;;;5.88;1.23;;;;;;;;;;5048589;28;20656;-69
2022/09/16 04:43:35;;;;;;;4.57;1.15;;;;;;;;;;5048961;28;20736;-69
2022/09/16 04:46:00;;;;;;;4.00;1.15;;;;;;;;;;5047771;28;20181;-71
2022/09/16 04:48:26;;;;;;;3.17;1.15;;;;;;;;;;5051377;28;20184;-71
2022/09/16 04:50:52;;;;;;;6.50;1.38;;;;;;;;;;5033827;28;20618;-72
2022/09/16 04:53:19;;;;;;;6.20;1.25;;;;;;;;;;5040216;28;20208;-71
2022/09/16 04:55:44;;;;;;;6.63;1.10;;;;;;;;;;5043202;28;20181;-70
2022/09/16 04:58:10;;;;;;;6.43;1.30;;;;;;;;;;5046735;28;20607;-72
2022/09/16 05:00:36;;;;;;;6.57;1.48;;;;;;;;;;5046857;28;20595;-74
2022/09/16 05:03:01;;;;;;;6.80;1.27;;;;;;;;;;5044102;28;20181;-75
2022/09/16 05:05:27;;;;;;;5.15;1.17;;;;;;;;;;5047426;28;20181;-75
2022/09/16 05:07:52;;;;;;;8.15;1.10;;;;;;;;;;5041019;28;20244;-72
2022/09/16 05:10:17;;;;;;;7.85;1.38;;;;;;;;;;5032270;28;20254;-72
2022/09/16 05:12:43;;;;;;;4.72;1.48;;;;;;;;;;5035569;28;20227;-72
2022/09/16 05:15:08;;;;;;;6.07;1.30;;;;;;;;;;5039162;28;20181;-70
2022/09/16 05:17:33;;;;;;;7.63;1.27;;;;;;;;;;5051705;28;20237;-73
2022/09/16 05:19:59;;;;;;;7.63;1.00;;;;;;;;;;5038893;28;20174;-75
2022/09/16 05:22:24;;;;;;;6.63;1.08;;;;;;;;;;5045684;28;20514;-73
2022/09/16 05:24:49;;;;;;;5.35;1.40;;;;;;;;;;5037152;28;20272;-70
2022/09/16 05:27:16;;;;;;;5.72;1.73;;;;;;;;;;5039882;28;20701;-70
2022/09/16 05:29:41;;;;;;;13.95;1.75;;;;;;;;;;5045226;28;20208;-70
2022/09/16 05:32:06;;;;;;;3.72;1.00;;;;;;;;;;5030345;28;20233;-70
2022/09/16 05:34:34;;;;;;;7.82;1.95;;;;;;;;;;5035701;28;20186;-69
2022/09/16 05:37:00;;;;;;;5.45;1.40;;;;;;;;;;5048776;28;20206;-71
2022/09/16 05:39:25;;;;;;;2.58;1.30;;;;;;;;;;5034575;28;20185;-70
2022/09/16 05:41:56;;;;;;;7.60;1.45;;;;;;;;;;5036388;28;20189;-68
2022/09/16 05:44:22;;;;;;;6.20;1.90;;;;;;;;;;5038737;28;20232;-70
2022/09/16 05:46:47;;;;;;;4.72;1.48;;;;;;;;;;5043422;28;20260;-68
2022/09/16 05:49:19;;;;;;;4.28;1.45;;;;;;;;;;5047493;28;20179;-68
2022/09/16 05:51:45;;;;;;;4.18;1.70;;;;;;;;;;5039292;28;20194;-69
2022/09/16 05:54:10;;;;;;;5.03;1.35;;;;;;;;;;5041195;28;20174;-71
2022/09/16 05:56:36;;;;;;;4.93;1.75;;;;;;;;;;5040331;28;20189;-70
2022/09/16 05:59:01;;;;;;;5.07;1.60;;;;;;;;;;5047998;28;20177;-68
2022/09/16 06:01:31;;;;;;;5.13;1.55;;;;;;;;;;5047500;28;20641;-68
2022/09/16 06:04:00;;;;;;;5.35;1.60;;;;;;;;;;5045221;28;20192;-66
2022/09/16 06:06:26;;;;;;;7.20;1.70;;;;;;;;;;5044677;28;20460;-67
2022/09/16 06:08:54;;;;;;;5.82;1.63;;;;;;;;;;5037543;28;20256;-66
2022/09/16 06:11:21;;;;;;;6.55;1.50;;;;;;;;;;5042754;28;20219;-68
2022/09/16 06:13:50;;;;;;;4.68;1.45;;;;;;;;;;5046065;28;20243;-67
2022/09/16 06:16:16;;;;;;;6.60;1.30;;;;;;;;;;5040890;28;20194;-68
2022/09/16 06:18:42;;;;;;;4.35;1.20;;;;;;;;;;5032084;28;20264;-68
2022/09/16 06:21:10;;;;;;;5.00;1.00;;;;;;;;;;5037842;28;20649;-67
2022/09/16 06:23:37;;;;;;;3.15;1.00;;;;;;;;;;5049120;28;20668;-68
2022/09/16 06:26:08;;;;;;;6.45;0.80;;;;;;;;;;5043510;28;20763;-68
2022/09/16 06:28:34;;;;;;;4.10;0.95;;;;;;;;;;5059191;28;20222;-68
2022/09/16 06:31:07;;;;;;;4.15;0.95;;;;;;;;;;5032237;28;20185;-69
2022/09/16 06:33:34;;;;;;;3.88;1.00;;;;;;;;;;5029416;28;20212;-68
2022/09/16 06:36:14;;;;;;;2.95;0.82;;;;;;;;;;5024290;28;21589;-68
2022/09/16 06:38:40;;;;;;;4.30;1.15;;;;;;;;;;5046379;28;20762;-68
2022/09/16 06:41:07;;;;;;;5.15;0.88;;;;;;;;;;5047183;28;20170;-68
2022/09/16 06:43:34;;;;;;;2.35;0.80;;;;;;;;;;5042311;28;20653;-68
2022/09/16 06:46:04;;;;;;;5.65;1.13;;;;;;;;;;5034111;28;20178;-68
2022/09/16 06:48:32;;;;;;;3.75;1.00;;;;;;;;;;5037175;28;20173;-68
2022/09/16 06:51:03;;;;;;;2.40;0.68;;;;;;;;;;5044813;28;20189;-67
2022/09/16 06:53:29;;;;;;;6.15;1.10;;;;;;;;;;5041032;28;20183;-67
2022/09/16 06:56:00;;;;;;;6.13;0.88;;;;;;;;;;5037008;28;20238;-67
2022/09/16 06:58:25;;;;;;;3.50;1.00;;;;;;;;;;5043982;28;20707;-67
2022/09/16 07:00:50;;;;;;;5.07;1.30;;;;;;;;;;5043292;28;20184;-67
2022/09/16 07:03:16;;;;;;;6.25;1.00;;;;;;;;;;5047509;28;20210;-67
2022/09/16 07:05:42;;;;;;;8.60;1.00;;;;;;;;;;5047477;28;20214;-67
2022/09/16 07:08:07;;;;;;;3.30;0.63;;;;;;;;;;5047704;28;20173;-68
2022/09/16 07:10:32;;;;;;;5.10;0.73;;;;;;;;;;5034644;28;20182;-68
2022/09/16 07:12:58;;;;;;;4.57;0.75;;;;;;;;;;5065336;28;20193;-68
2022/09/16 07:15:23;;;;;;;3.03;0.80;;;;;;;;;;5050099;28;20188;-68
2022/09/16 07:17:54;;;;;;;6.93;1.10;;;;;;;;;;5041195;28;20189;-69
2022/09/16 07:20:19;;;;;;;7.65;0.95;;;;;;;;;;5040874;28;20635;-68
2022/09/16 07:22:49;;;;;;;4.47;1.20;;;;;;;;;;5044967;28;20185;-67
2022/09/16 07:25:15;;;;;;;3.53;0.80;;;;;;;;;;5042107;28;20272;-66
2022/09/16 07:27:41;;;;;;;5.28;0.73;;;;;;;;;;5042101;28;20633;-68
2022/09/16 07:30:06;;;;;;;6.72;1.00;;;;;;;;;;5030458;28;20189;-69
2022/09/16 07:32:32;;;;;;;3.88;1.08;;;;;;;;;;5039546;28;20516;-70
2022/09/16 07:34:57;;;;;;;4.10;1.35;;;;;;;;;;5038388;28;20637;-68
2022/09/16 07:37:22;;;;;;;4.38;0.90;;;;;;;;;;5032804;28;20214;-69
2022/09/16 07:39:49;;;;;;;5.97;1.15;;;;;;;;;;5032223;28;20185;-69
2022/09/16 07:42:15;;;;;;;4.22;0.85;;;;;;;;;;5028828;28;20189;-68
2022/09/16 07:44:40;;;;;;;9.07;1.13;;;;;;;;;;5029791;28;20914;-69
2022/09/16 07:47:05;;;;;;;9.05;0.90;;;;;;;;;;5056020;28;20267;-67
2022/09/16 07:49:31;;;;;;;5.82;1.10;;;;;;;;;;5026238;28;20216;-69
2022/09/16 07:51:56;;;;;;;3.90;0.73;;;;;;;;;;5028438;28;20244;-68
2022/09/16 07:54:21;;;;;;;5.22;0.93;;;;;;;;;;5033224;28;20243;-68
2022/09/16 07:56:47;;;;;;;7.30;0.95;;;;;;;;;;5029997;28;20531;-68
2022/09/16 07:59:15;;;;;;;3.33;0.70;;;;;;;;;;5035678;28;20178;-68
2022/09/16 08:01:41;;;;;;;6.07;0.70;;;;;;;;;;5045806;28;20191;-67
2022/09/16 08:04:06;;;;;;;6.78;1.00;;;;;;;;;;5029661;28;20265;-68
2022/09/16 08:06:32;;;;;;;5.47;0.85;;;;;;;;;;5029578;28;20186;-70
2022/09/16 08:08:59;;;;;;;11.70;2.22;;;;;;;;;;5040381;28;20209;-69
2022/09/16 08:11:26;;;;;;;5.22;0.70;;;;;;;;;;5029790;28;20185;-68
2022/09/16 08:13:52;;;;;;;7.38;1.00;;;;;;;;;;5032816;28;20251;-68
2022/09/16 08:16:20;;;;;;;4.38;1.05;;;;;;;;;;5050675;28;20181;-68
2022/09/16 08:18:48;;;;;;;3.28;0.82;;;;;;;;;;5040950;28;20197;-68
2022/09/16 08:21:20;;;;;;;7.53;1.00;;;;;;;;;;5049025;28;20211;-68
2022/09/16 08:23:46;;;;;;;5.03;0.70;;;;;;;;;;5045432;28;20638;-68
2022/09/16 08:26:13;;;;;;;6.88;0.60;;;;;;;;;;5046331;28;20583;-70
2022/09/16 08:28:40;;;;;;;8.40;0.88;;;;;;;;;;5046034;28;20173;-68
2022/09/16 08:31:06;;;;;;;5.38;0.90;;;;;;;;;;5053993;28;20195;-68
2022/09/16 08:33:32;;;;;;;3.88;0.95;;;;;;;;;;5046313;28;20295;-68
2022/09/16 08:36:04;;;;;;;6.03;0.60;;;;;;;;;;5039111;28;20189;-69
2022/09/16 08:38:29;;;;;;;4.60;0.95;;;;;;;;;;5042983;28;20197;-69
2022/09/16 08:41:20;;;;;;;5.30;0.98;;;;;;;;;;5042466;28;20181;-70
2022/09/16 08:44:12;;;;;;;7.20;0.68;;;;;;;;;;5037481;28;20189;-68
2022/09/16 08:46:56;;;;;;;4.20;1.17;;;;;;;;;;5032437;28;20185;-69
2022/09/16 08:49:43;;;;;;;6.93;1.05;;;;;;;;;;5035554;28;20685;-68
2022/09/16 08:52:29;;;;;;;5.97;0.82;;;;;;;;;;5032914;28;20186;-68
2022/09/16 08:55:20;;;;;;;8.00;1.20;;;;;;;;;;5045624;28;20617;-66
2022/09/16 08:58:08;;;;;;;7.20;0.93;;;;;;;;;;5047715;28;20197;-67
2022/09/16 09:00:36;;;;;;;5.97;0.75;;;;;;;;;;5045077;28;20193;-67
2022/09/16 09:03:40;;;;;;;9.10;0.90;;;;;;;;;;5040173;28;20524;-66
2022/09/16 09:06:20;;;;;;;8.60;0.70;;;;;;;;;;5049192;28;20230;-70
2022/09/16 09:09:20;;;;;;;8.30;0.70;;;;;;;;;;5048691;28;21028;-67
2022/09/16 09:12:09;;;;;;;4.93;1.02;;;;;;;;;;5035480;28;20198;-67
2022/09/16 09:14:58;;;;;;;8.43;0.77;;;;;;;;;;5035245;28;20184;-66
2022/09/16 09:17:42;;;;;;;7.90;0.98;;;;;;;;;;5050128;28;20220;-67
2022/09/16 09:20:30;;;;;;;6.38;1.30;;;;;;;;;;5039875;28;20671;-66
2022/09/16 09:22:55;;;;;;;6.53;0.90;;;;;;;;;;5050035;28;20217;-67
2022/09/16 09:25:41;;;;;;;3.65;0.80;;;;;;;;;;5050596;28;20681;-69
2022/09/16 09:28:20;;;;;;;6.72;0.98;;;;;;;;;;5039339;28;20203;-67
2022/09/16 09:31:11;;;;;;;5.82;0.90;;;;;;;;;;5040718;28;20217;-68
2022/09/16 09:33:51;;;;;;;7.85;1.10;;;;;;;;;;5050008;28;20197;-67
2022/09/16 09:36:19;;;;;;;4.50;0.55;;;;;;;;;;5040424;28;20212;-68
2022/09/16 09:38:51;;;;;;;6.10;0.80;;;;;;;;;;5054003;28;20251;-68
2022/09/16 09:41:33;;;;;;;6.80;1.20;;;;;;;;;;5040245;28;20606;-68
2022/09/16 09:44:40;;;;;;;4.28;0.75;;;;;;;;;;5053921;28;20184;-69
2022/09/16 09:47:21;;;;;;;6.05;1.08;;;;;;;;;;5037904;28;20205;-69
2022/09/16 09:49:50;;;;;;;6.75;1.00;;;;;;;;;;5044950;28;20688;-66
2022/09/16 09:52:22;;;;;;;7.90;0.65;;;;;;;;;;5039365;28;20271;-69
2022/09/16 09:54:51;;;;;;;4.78;0.75;;;;;;;;;;5048484;28;20185;-69
2022/09/16 09:57:36;;;;;;;4.72;0.95;;;;;;;;;;5031602;28;20252;-68
2022/09/16 10:00:17;;;;;;;4.40;0.88;;;;;;;;;;5030136;28;20224;-65
2022/09/16 10:02:44;;;;;;;3.25;0.60;;;;;;;;;;5035486;28;20177;-67
2022/09/16 10:05:21;;;;;;;5.70;0.63;;;;;;;;;;5035093;28;20224;-68
2022/09/16 10:07:48;;;;;;;5.85;0.68;;;;;;;;;;5039532;28;20176;-66
2022/09/16 10:10:16;;;;;;;4.38;0.70;;;;;;;;;;5036027;28;20198;-65
2022/09/16 10:12:43;;;;;;;5.32;0.85;;;;;;;;;;5029627;28;20190;-66
2022/09/16 10:15:38;;;;;;;2.75;0.73;;;;;;;;;;5037799;28;20611;-67
2022/09/16 10:18:29;;;;;;;3.50;0.70;;;;;;;;;;5035054;28;20248;-67
2022/09/16 10:21:15;;;;;;;3.53;0.60;;;;;;;;;;5032162;28;20555;-67
2022/09/16 10:23:51;;;;;;;4.97;0.88;;;;;;;;;;5036351;28;20561;-66
2022/09/16 10:26:27;;;;;;;5.20;0.82;;;;;;;;;;5033527;28;20228;-66
2022/09/16 10:29:14;;;;;;;9.45;0.88;;;;;;;;;;5030050;28;20536;-69
2022/09/16 10:31:41;;;;;;;7.60;1.15;;;;;;;;;;5030742;28;20244;-67
2022/09/16 10:34:30;;;;;;;3.80;0.63;;;;;;;;;;5040382;28;20177;-68
2022/09/16 10:37:04;;;;;;;4.35;0.63;;;;;;;;;;5030462;28;20202;-66
2022/09/16 10:39:31;;;;;;;3.22;0.50;;;;;;;;;;5029201;28;20170;-67
2022/09/16 10:41:56;;;;;;;6.53;0.80;;;;;;;;;;5038800;28;20185;-67
2022/09/16 10:44:25;;;;;;;7.85;1.00;;;;;;;;;;5043321;28;20197;-67
2022/09/16 10:46:59;;;;;;;6.00;0.68;;;;;;;;;;5031649;28;20178;-67
2022/09/16 10:49:37;;;;;;;4.93;1.00;;;;;;;;;;5035273;28;20181;-67
2022/09/16 10:52:16;;;;;;;5.80;0.75;;;;;;;;;;5035648;28;20181;-66
2022/09/16 10:54:41;;;;;;;5.28;0.80;;;;;;;;;;5039242;28;20195;-67
2022/09/16 10:57:28;;;;;;;4.90;0.60;;;;;;;;;;5045166;28;20196;-66
2022/09/16 10:59:58;;;;;;;4.15;0.80;;;;;;;;;;5043282;28;20189;-65
2022/09/16 11:02:57;;;;;;;3.83;0.70;;;;;;;;;;5045502;28;20324;-69
2022/09/16 11:05:28;;;;;;;7.47;0.80;;;;;;;;;;5045759;28;20174;-67
2022/09/16 11:08:39;;;;;;;4.65;0.70;;;;;;;;;;5039815;28;20256;-67
2022/09/16 11:11:31;;;;;;;3.58;0.73;;;;;;;;;;5045052;28;20190;-67
2022/09/16 11:14:13;;;;;;;6.88;1.55;;;;;;;;;;5045327;28;20224;-67
2022/09/16 11:16:55;;;;;;;9.63;1.02;;;;;;;;;;5034166;28;20170;-67
2022/09/16 11:19:20;;;;;;;7.35;1.00;;;;;;;;;;5037653;28;20229;-66
2022/09/16 11:21:57;;;;;;;8.80;1.50;;;;;;;;;;5041373;28;20223;-67
2022/09/16 11:24:34;;;;;;;7.70;1.00;;;;;;;;;;5034494;28;20182;-67
2022/09/16 11:27:33;;;;;;;6.63;1.30;;;;;;;;;;5029150;28;20594;-66
2022/09/16 11:30:11;;;;;;;8.48;1.40;;;;;;;;;;5044033;28;20260;-66
2022/09/16 11:32:55;;;;;;;8.20;1.02;;;;;;;;;;5037776;28;20621;-70
2022/09/16 11:35:40;;;;;;;9.30;1.23;;;;;;;;;;5037301;28;20186;-67
2022/09/16 11:38:50;;;;;;;8.20;1.90;;;;;;;;;;5033375;28;20204;-66
2022/09/16 11:41:30;;;;;;;10.00;1.20;;;;;;;;;;5036082;28;20216;-67
2022/09/16 11:44:30;;;;;;;5.60;0.90;;;;;;;;;;5038022;28;20185;-67
2022/09/16 11:47:26;;;;;;;7.18;1.05;;;;;;;;;;5031610;28;20681;-65
2022/09/16 11:50:17;;;;;;;7.10;1.20;;;;;;;;;;5027731;28;20197;-66
2022/09/16 11:53:00;;;;;;;5.40;1.30;;;;;;;;;;5028344;28;20215;-68
2022/09/16 11:55:38;;;;;;;5.93;1.00;;;;;;;;;;5039999;28;20681;-68
2022/09/16 11:58:34;;;;;;;5.90;0.95;;;;;;;;;;5027962;28;20206;-65
2022/09/16 12:01:10;;;;;;;5.88;0.88;;;;;;;;;;5028215;28;20249;-69
2022/09/16 12:04:15;;;;;;;9.38;1.30;;;;;;;;;;5026728;28;20273;-65
2022/09/16 12:06:47;;;;;;;9.15;0.82;;;;;;;;;;5028167;28;20550;-66
2022/09/16 12:09:17;;;;;;;7.18;1.05;;;;;;;;;;5042800;28;20175;-66
2022/09/16 12:11:51;;;;;;;6.05;0.90;;;;;;;;;;5038437;28;20181;-67
2022/09/16 12:14:27;;;;;;;6.15;1.02;;;;;;;;;;5028099;28;20174;-66
2022/09/16 12:16:58;;;;;;;5.13;1.20;;;;;;;;;;5027711;28;20182;-67
2022/09/16 12:19:32;;;;;;;5.55;1.02;;;;;;;;;;5028913;28;20356;-66
2022/09/16 12:22:03;;;;;;;8.18;0.90;;;;;;;;;;5032475;28;20465;-65
2022/09/16 12:24:42;;;;;;;8.18;1.13;;;;;;;;;;5029737;28;20174;-65
2022/09/16 12:27:34;;;;;;;4.93;0.85;;;;;;;;;;5030737;28;20221;-66
2022/09/16 12:30:05;;;;;;;6.75;1.05;;;;;;;;;;5028828;28;20283;-72
2022/09/16 12:33:01;;;;;;;9.50;1.30;;;;;;;;;;5032672;28;20315;-66
2022/09/16 12:35:32;;;;;;;5.78;1.15;;;;;;;;;;5029923;28;20182;-64
2022/09/16 12:37:58;;;;;;;7.53;1.42;;;;;;;;;;5042621;28;20595;-65
2022/09/16 12:40:33;;;;;;;6.13;1.60;;;;;;;;;;5049639;28;20177;-66
2022/09/16 12:43:35;;;;;;;8.35;1.58;;;;;;;;;;5038286;28;20186;-66
2022/09/16 12:46:15;;;;;;;6.60;0.85;;;;;;;;;;5029205;28;20220;-65
2022/09/16 12:49:28;;;;;;;7.40;1.15;;;;;;;;;;5030906;28;20176;-66
2022/09/16 12:52:19;;;;;;;7.47;1.30;;;;;;;;;;5031287;28;20212;-66
2022/09/16 12:54:58;;;;;;;5.97;1.15;;;;;;;;;;5031122;28;20256;-67
2022/09/16 12:57:42;;;;;;;9.95;1.48;;;;;;;;;;5028002;28;20612;-64
2022/09/16 13:00:19;;;;;;;3.83;0.88;;;;;;;;;;5038698;28;20588;-65
2022/09/16 13:02:47;;;;;;;6.10;1.50;;;;;;;;;;5046612;28;20370;-64
2022/09/16 13:05:19;;;;;;;8.95;1.80;;;;;;;;;;5039647;28;20857;-65
2022/09/16 13:07:52;;;;;;;6.10;1.00;;;;;;;;;;5041084;28;20186;-66
2022/09/16 13:10:25;;;;;;;5.88;1.08;;;;;;;;;;5037156;28;20177;-65
2022/09/16 13:12:54;;;;;;;6.47;1.05;;;;;;;;;;5042539;28;20209;-72
2022/09/16 13:15:34;;;;;;;6.65;1.38;;;;;;;;;;5043370;28;20209;-68
2022/09/16 13:18:19;;;;;;;5.30;0.85;;;;;;;;;;5037270;28;22024;-65
2022/09/16 13:21:17;;;;;;;7.53;0.90;;;;;;;;;;5029456;28;20272;-67
2022/09/16 13:23:46;;;;;;;7.82;1.13;;;;;;;;;;5044818;28;20567;-65
2022/09/16 13:26:13;;;;;;;6.55;1.13;;;;;;;;;;5032990;28;20713;-67
2022/09/16 13:28:40;;;;;;;9.73;1.27;;;;;;;;;;5036181;28;20166;-67
2022/09/16 13:31:11;;;;;;;8.60;1.10;;;;;;;;;;5039013;28;20567;-69
2022/09/16 13:34:00;;;;;;;3.15;1.02;;;;;;;;;;5027492;28;20205;-70
2022/09/16 13:36:25;;;;;;;6.35;0.90;;;;;;;;;;5042507;28;20468;-67
2022/09/16 13:38:53;;;;;;;7.13;1.27;;;;;;;;;;5033762;28;20186;-66
2022/09/16 13:41:35;;;;;;;8.77;1.15;;;;;;;;;;5047150;28;20557;-66
2022/09/16 13:44:02;;;;;;;6.07;1.90;;;;;;;;;;5037439;28;20186;-66
2022/09/16 13:46:36;;;;;;;6.20;0.82;;;;;;;;;;5038656;28;20264;-65
2022/09/16 13:49:01;;;;;;;8.32;0.90;;;;;;;;;;5047800;28;20264;-65
2022/09/16 13:51:28;;;;;;;5.20;0.80;;;;;;;;;;5047182;28;20256;-71
2022/09/16 13:53:57;;;;;;;4.53;0.73;;;;;;;;;;5046492;28;20185;-66
2022/09/16 13:56:49;;;;;;;9.15;1.02;;;;;;;;;;5038884;28;20178;-65
2022/09/16 13:59:37;;;;;;;7.00;0.85;;;;;;;;;;5041875;28;20198;-66
2022/09/16 14:02:19;;;;;;;4.38;0.70;;;;;;;;;;5047643;28;20652;-64
2022/09/16 14:05:15;;;;;;;7.05;1.00;;;;;;;;;;5040103;28;20530;-66
2022/09/16 14:08:05;;;;;;;7.32;1.10;;;;;;;;;;5043735;28;20256;-64
2022/09/16 14:10:46;;;;;;;5.00;0.75;;;;;;;;;;5034003;28;20178;-66
2022/09/16 14:13:15;;;;;;;6.07;1.00;;;;;;;;;;5041449;28;20189;-66
2022/09/16 14:15:52;;;;;;;6.43;0.93;;;;;;;;;;5047022;28;20178;-67
2022/09/16 14:18:23;;;;;;;4.35;0.73;;;;;;;;;;5041223;28;20201;-65
2022/09/16 14:21:00;;;;;;;6.20;0.90;;;;;;;;;;5053812;28;20170;-66
2022/09/16 14:23:27;;;;;;;4.45;0.90;;;;;;;;;;5042333;28;20184;-67
2022/09/16 14:25:52;;;;;;;3.97;0.65;;;;;;;;;;5047564;28;20355;-65
2022/09/16 14:28:19;;;;;;;7.80;0.90;;;;;;;;;;5049517;28;20691;-67
2022/09/16 14:30:52;;;;;;;6.13;0.80;;;;;;;;;;5045421;28;20204;-64
2022/09/16 14:33:22;;;;;;;5.18;1.00;;;;;;;;;;5046640;28;20284;-68
2022/09/16 14:35:51;;;;;;;5.95;0.77;;;;;;;;;;5049154;28;20177;-65
2022/09/16 14:38:19;;;;;;;10.32;1.27;;;;;;;;;;5039678;28;20783;-74
2022/09/16 14:40:45;;;;;;;6.63;0.93;;;;;;;;;;5044695;28;20173;-71
2022/09/16 14:43:20;;;;;;;5.85;1.10;;;;;;;;;;5048750;28;20177;-67
2022/09/16 14:45:52;;;;;;;16.60;1.75;;;;;;;;;;5035780;28;20414;-66
2022/09/16 14:48:19;;;;;;;4.90;1.25;;;;;;;;;;5043609;28;20181;-65
2022/09/16 14:50:48;;;;;;;6.93;1.17;;;;;;;;;;5047790;28;20201;-66
2022/09/16 14:53:27;;;;;;;8.00;1.30;;;;;;;;;;5048238;28;20321;-67
2022/09/16 14:55:53;;;;;;;7.97;1.30;;;;;;;;;;5045974;28;20402;-65
2022/09/16 14:58:20;;;;;;;8.70;1.30;;;;;;;;;;5046261;28;20771;-66
2022/09/16 15:00:48;;;;;;;8.90;1.10;;;;;;;;;;5048659;28;20548;-66
2022/09/16 15:03:44;;;;;;;7.38;1.23;;;;;;;;;;5044812;28;20173;-65
2022/09/16 15:06:21;;;;;;;11.45;1.65;;;;;;;;;;5048745;28;20169;-66
2022/09/16 15:08:52;;;;;;;12.00;1.77;;;;;;;;;;5047186;28;20519;-66
2022/09/16 15:11:22;;;;;;;6.82;1.52;;;;;;;;;;5048105;28;20976;-68
2022/09/16 15:13:48;;;;;;;5.65;1.20;;;;;;;;;;5049110;28;20181;-67
2022/09/16 15:16:16;;;;;;;7.55;1.35;;;;;;;;;;5046690;28;20205;-69
2022/09/16 15:18:59;;;;;;;14.25;1.77;;;;;;;;;;5042563;28;20198;-65
2022/09/16 15:21:36;;;;;;;10.63;1.20;;;;;;;;;;5043479;28;20194;-66